WetterOnline ( https://www.wetteronline.de )

Wetter aktuell Denkendorf

Aktuelles Wetter: Gelbelsee (539m)

6-stündlich | Neueste Meldungen
Ortszeit Temperatur Wetter
Fr, 17.09. 8:00 10.5° C bedeckt
Fr, 17.09. 2:00 10.2° C wolkenlos
Do, 16.09. 20:00 13.9° C bewölkt
Do, 16.09. 14:00 18.8° C bewölkt
Do, 16.09. 8:00 15.2° C bewölkt
Do, 16.09. 2:00 16.2° C bedeckt
Mi, 15.09. 20:00 18.6° C bedeckt
Mi, 15.09. 14:00 19.0° C bedeckt
Ortszeit Temperatur Wetter
Fr, 17.09. 8:10 10.5° C bedeckt
Fr, 17.09. 8:00 10.5° C bedeckt
Fr, 17.09. 7:50 10.5° C bedeckt
Fr, 17.09. 7:40 10.4° C bedeckt
Fr, 17.09. 7:30 10.7° C bedeckt
Fr, 17.09. 7:20 10.7° C bedeckt
Fr, 17.09. 7:00 10.1° C bewölkt
Fr, 17.09. 6:30 9.5° C fast wolkenlos
Fr, 17.09. 6:00 10.1° C wolkenlos
Fr, 17.09. 5:30 9.9° C wolkenlos
Fr, 17.09. 5:00 9.8° C wolkenlos
Ortszeit Relative Feuchte Sichtweite
Fr, 17.09. 8:00 97% 5.0 km
Fr, 17.09. 2:00 95% 19 km
Do, 16.09. 20:00 94% 14 km
Do, 16.09. 14:00 85% 60 km
Do, 16.09. 8:00 98% 9 km
Do, 16.09. 2:00 99% 9 km
Mi, 15.09. 20:00 83% 5.0 km
Mi, 15.09. 14:00 85% 25 km
Ortszeit Relative Feuchte Sichtweite
Fr, 17.09. 8:10 97% -
Fr, 17.09. 8:00 97% 5.0 km
Fr, 17.09. 7:50 97% -
Fr, 17.09. 7:40 97% -
Fr, 17.09. 7:30 97% 7 km
Fr, 17.09. 7:20 97% -
Fr, 17.09. 7:00 98% 4.7 km
Fr, 17.09. 6:30 98% 5.0 km
Fr, 17.09. 6:00 98% 7 km
Fr, 17.09. 5:30 98% 7 km
Fr, 17.09. 5:00 97% 7 km
Ortszeit Niederschlagsmenge Niederschlagsart
Fr, 17.09. 8:00 0.1 l/m2 in 12 Std. -
Fr, 17.09. 2:00 0.0 l/m2 in 6 Std. -
Do, 16.09. 20:00 3 l/m2 in 12 Std. Regen
Do, 16.09. 14:00 2 l/m2 in 6 Std. Regen
Do, 16.09. 8:00 2 l/m2 in 12 Std. Regen
Do, 16.09. 2:00 2 l/m2 in 6 Std. Regen
Mi, 15.09. 20:00 0.1 l/m2 in 12 Std. Regen
Mi, 15.09. 14:00 0.1 l/m2 in 6 Std. Regen
Ortszeit Niederschlagsmenge Niederschlagsart
Fr, 17.09. 8:10 keine Meldung -
Fr, 17.09. 8:00 0.0 l/m2 in 1 Std. -
Fr, 17.09. 7:50 keine Meldung -
Fr, 17.09. 7:40 keine Meldung -
Fr, 17.09. 7:30 0.0 l/m2 in 1 Std. -
Fr, 17.09. 7:20 keine Meldung -
Fr, 17.09. 7:00 0.1 l/m2 in 1 Std. -
Fr, 17.09. 6:30 0.1 l/m2 in 1 Std. -
Fr, 17.09. 6:00 0.1 l/m2 in 1 Std. -
Fr, 17.09. 5:30 0.0 l/m2 in 1 Std. -
Fr, 17.09. 5:00 0.1 l/m2 in 1 Std. -
Ortszeit Stärke Spitze Richtung
km/h Bft. km/h Grad Sektor
Fr, 17.09. 8:00 7 2 18 260° W
Fr, 17.09. 2:00 7 2 22 300° NW
Do, 16.09. 20:00 9 2 30 310° NW
Do, 16.09. 14:00 7 2 18 250° W
Do, 16.09. 8:00 7 2 14 220° SW
Do, 16.09. 2:00 7 2 22 220° SW
Mi, 15.09. 20:00 7 2 22 200° S
Mi, 15.09. 14:00 4 1 14 280° W
Ortszeit Stärke Spitze Richtung
km/h Bft. km/h Grad Sektor
Fr, 17.09. 8:10 6 1 - 260° W
Fr, 17.09. 8:00 7 2 18 260° W
Fr, 17.09. 7:50 7 2 - 260° W
Fr, 17.09. 7:40 7 2 - 270° W
Fr, 17.09. 7:30 7 2 17 260° W
Fr, 17.09. 7:20 7 2 - 260° W
Fr, 17.09. 7:00 6 1 11 260° W
Fr, 17.09. 6:30 9 2 11 280° W
Fr, 17.09. 6:00 7 2 14 300° NW
Fr, 17.09. 5:30 7 2 11 320° NW
Fr, 17.09. 5:00 9 2 15 320° NW
Ortszeit Untergrenze Bedeckung Gattung
total tief tief mittel hoch
Fr, 17.09. 8:00 1260 m 8/8 8/8 - - -
Fr, 17.09. 2:00 - 0/8 0/8 - - -
Do, 16.09. 20:00 570 m 8/8 4/8 - - -
Do, 16.09. 14:00 240 m 8/8 7/8 - - -
Do, 16.09. 8:00 1800 m 8/8 7/8 - - -
Do, 16.09. 2:00 120 m 8/8 8/8 - - -
Mi, 15.09. 20:00 3000 m 8/8 8/8 - - -
Mi, 15.09. 14:00 2400 m 8/8 8/8 - - -
Ortszeit Bedeckungsgrad in Achtel und Wolkenuntergrenze
Fr, 17.09. 8:10 8(1290m)
Fr, 17.09. 8:00 8(1260m)
Fr, 17.09. 7:50 8(1260m)
Fr, 17.09. 7:40 1(210m) 8(1290m)
Fr, 17.09. 7:30 2(240m) 8(1290m)
Fr, 17.09. 7:20 2(240m) 8(1290m)
Fr, 17.09. 7:00 7(1320m)
Fr, 17.09. 6:30 2(1350m)
Fr, 17.09. 6:00 keine Wolken
Fr, 17.09. 5:30 keine Wolken
Fr, 17.09. 5:00 keine Wolken
Ortszeit Luftdruck NN (hPa) Tendenz (hPa in 3 Std.)
Fr, 17.09. 8:00 1018 + 0,3
Fr, 17.09. 2:00 1018 + 0,1
Do, 16.09. 20:00 1016 + 0,8
Do, 16.09. 14:00 1014 - 0,6
Do, 16.09. 8:00 1015 + 0,2
Do, 16.09. 2:00 1015 + 0,3
Mi, 15.09. 20:00 1013 + 0,1
Mi, 15.09. 14:00 1014 + 0,5
Ortszeit Luftdruck NN (hPa) Tendenz (hPa in 3 Std.)
Fr, 17.09. 8:10 1018 keine Meldung
Fr, 17.09. 8:00 1018 + 0,3
Fr, 17.09. 7:50 1018 keine Meldung
Fr, 17.09. 7:40 1018 keine Meldung
Fr, 17.09. 7:30 1018 0,0
Fr, 17.09. 7:20 1018 keine Meldung
Fr, 17.09. 7:00 1017 - 0,3
Fr, 17.09. 6:30 1017 - 0,6
Fr, 17.09. 6:00 1017 - 0,7
Fr, 17.09. 5:30 1017 - 0,7
Fr, 17.09. 5:00 1018 - 0,7
Ortszeit Schneehöhe (cm)
Fr, 17.09. 8:00 -
Fr, 17.09. 2:00 -
Do, 16.09. 20:00 -
Do, 16.09. 14:00 -
Do, 16.09. 8:00 -
Do, 16.09. 2:00 -
Mi, 15.09. 20:00 -
Mi, 15.09. 14:00 -
Ortszeit Schneehöhe (cm)
Fr, 17.09. 8:10 -
Fr, 17.09. 8:00 -
Fr, 17.09. 7:50 -
Fr, 17.09. 7:40 -
Fr, 17.09. 7:30 -
Fr, 17.09. 7:20 -
Fr, 17.09. 7:00 -
Fr, 17.09. 6:30 -
Fr, 17.09. 6:00 -
Fr, 17.09. 5:30 -
Fr, 17.09. 5:00 -
Link zu dieser Seite / Seite empfehlen

Das Wetter in ...